M I D A S
Marine Information and Data Acquisition System
Tripno 1830 of the Zeeleeuw from 2009-12-09 07:18:40 to 2009-12-09 15:15:33
Back to CruiseResearch ActivitiesStationsMapUnderway DataData graphs

EquipmentUnitsComment
TimeDGPSUTC
LatitudeDGPSDM.mWGS84
LongitudeDGPSDM.mWGS84
HeadingGyrodeg 
SOGDGPSknotsSpeed over ground
COGDGPSdegCourse over ground
DepthEcho soundermeters200 kHz
Missing or incorrect values are displayed as -999
Navigation data collected by the RV Zeeleeuw from 2009-12-09 07:27:41 to 2009-12-09 17:35:34
Time Latitude Longitude Heading SOG COG Depth
2009-12-09 07:28:50 51°13.677 2°55.898 105.1 3.3 290 -999
2009-12-09 07:29:50 51°13.7 2°55.81 118.2 3.9 300 -999
2009-12-09 07:30:50 51°13.734 2°55.729 130.7 3.4 312 -999
2009-12-09 07:31:50 51°13.781 2°55.669 147.8 3.7 327 -999
2009-12-09 07:32:50 51°13.845 2°55.631 171 4.5 350 -999
2009-12-09 07:33:50 51°13.91 2°55.635 201 3 15 -999
2009-12-09 07:34:49 51°13.936 2°55.649 233.1 0.6 311 12
2009-12-09 07:35:47 51°13.953 2°55.59 302.7 4.3 306 12.6
2009-12-09 07:36:46 51°14.021 2°55.488 323.7 6.5 326 12.5
2009-12-09 07:37:46 51°14.13 2°55.397 335.6 8.2 335 12.5
2009-12-09 07:38:46 51°14.25 2°55.265 317.9 9.5 317 12.3
2009-12-09 07:39:45 51°14.362 2°55.052 309.7 11.3 310 11.9
2009-12-09 07:40:46 51°14.52 2°54.886 331.5 11.4 336 11.9
2009-12-09 07:41:46 51°14.69 2°54.752 326.3 11.4 331 11.4
2009-12-09 07:42:46 51°14.854 2°54.6 326 11.5 331 11.1
2009-12-09 07:43:45 51°15.016 2°54.45 325.1 11.5 329 12
2009-12-09 07:44:46 51°15.182 2°54.289 325.2 11.5 328 12.2
2009-12-09 07:45:46 51°15.346 2°54.132 327.1 11.4 329 11.2
2009-12-09 07:46:45 51°15.512 2°53.984 327.8 11.5 330 11.6
2009-12-09 07:47:46 51°15.683 2°53.832 327.6 11.7 331 12.4
2009-12-09 07:48:46 51°15.854 2°53.684 327.7 11.7 332 12.8
2009-12-09 07:49:46 51°16.023 2°53.537 327.3 11.6 330 13.1
2009-12-09 07:50:46 51°16.191 2°53.387 327.2 11.6 332 13.3
2009-12-09 07:51:46 51°16.361 2°53.243 327.5 11.6 332 13.4
2009-12-09 07:52:46 51°16.532 2°53.099 327.4 11.5 332 13.1
2009-12-09 07:53:46 51°16.703 2°52.958 327.4 11.6 333 12.4
2009-12-09 07:54:46 51°16.873 2°52.812 327.4 11.5 331 10.4
2009-12-09 07:55:46 51°17.044 2°52.665 327.5 11.7 331 11.4
2009-12-09 07:56:46 51°17.214 2°52.516 327.1 11.7 331 11.3
2009-12-09 07:57:46 51°17.385 2°52.366 327.2 11.7 331 11.8
2009-12-09 07:58:46 51°17.556 2°52.215 327.1 11.8 331 12.7
2009-12-09 07:59:46 51°17.727 2°52.063 326.7 11.7 331 12.6
2009-12-09 08:00:46 51°17.897 2°51.912 327.8 11.6 332 11.7
2009-12-09 08:01:46 51°18.068 2°51.762 327.6 11.7 333 11.8
2009-12-09 08:02:46 51°18.238 2°51.614 327.8 11.8 332 13.2
2009-12-09 08:03:46 51°18.41 2°51.464 327.7 11.7 332 14.2
2009-12-09 08:04:46 51°18.579 2°51.314 327.4 11.7 331 15.1
2009-12-09 08:05:46 51°18.75 2°51.161 327.2 11.7 330 15.6
2009-12-09 08:06:46 51°18.921 2°51.009 326.2 11.7 331 16.1
2009-12-09 08:07:46 51°19.091 2°50.856 327.5 11.7 331 15.7
2009-12-09 08:08:46 51°19.261 2°50.704 326.7 11.6 329 15.3
2009-12-09 08:09:46 51°19.431 2°50.551 327.9 11.8 331 13.9
2009-12-09 08:10:46 51°19.599 2°50.396 327.5 11.7 330 13
2009-12-09 08:11:46 51°19.767 2°50.239 327.1 11.7 329 15
2009-12-09 08:12:46 51°19.937 2°50.085 327.7 11.8 330 16.3
2009-12-09 08:13:46 51°20.108 2°49.937 327.9 11.7 333 18.6
2009-12-09 08:14:46 51°20.28 2°49.789 327.4 11.7 332 20.9
2009-12-09 08:15:46 51°20.445 2°49.626 319.9 11.7 324 23
2009-12-09 08:16:46 51°20.602 2°49.448 319 11.5 325 24.1
2009-12-09 08:17:46 51°20.758 2°49.269 319.4 11.4 324 24.3
2009-12-09 08:18:46 51°20.913 2°49.09 319.9 11.5 326 23.5
2009-12-09 08:19:46 51°21.066 2°48.907 319.5 11.5 324 21.7
2009-12-09 08:20:46 51°21.222 2°48.73 321 11.5 325 21.5
2009-12-09 08:21:46 51°21.377 2°48.55 320 11.5 324 22.7
2009-12-09 08:22:46 51°21.531 2°48.369 320.6 11.6 325 23.8
2009-12-09 08:23:46 51°21.685 2°48.189 320.1 11.6 324 24.4
2009-12-09 08:24:46 51°21.84 2°48.01 320.2 11.5 324 24.7
2009-12-09 08:25:46 51°21.995 2°47.83 319.4 11.5 324 24.8
2009-12-09 08:26:46 51°22.15 2°47.651 320.8 11.4 327 24.2
2009-12-09 08:27:46 51°22.306 2°47.474 320.7 11.6 325 21
2009-12-09 08:28:46 51°22.463 2°47.294 319.4 11.6 324 15.2
2009-12-09 08:29:46 51°22.62 2°47.114 320.3 11.6 323 20.4
2009-12-09 08:30:46 51°22.776 2°46.931 319.3 11.7 321 18.2
2009-12-09 08:31:46 51°22.923 2°46.732 313.8 11.5 317 22.6
2009-12-09 08:32:46 51°23.069 2°46.532 315 11.5 319 22.9
2009-12-09 08:33:46 51°23.212 2°46.33 314.6 11.5 317 24
2009-12-09 08:34:46 51°23.356 2°46.129 314.5 11.5 319 24.5
2009-12-09 08:35:46 51°23.502 2°45.929 315.2 11.6 317 27.5
2009-12-09 08:36:46 51°23.649 2°45.728 315.3 11.6 320 27.7
2009-12-09 08:37:46 51°23.794 2°45.528 315.3 11.5 318 27.6
2009-12-09 08:38:46 51°23.935 2°45.335 315.6 9 320 26.7
2009-12-09 08:39:46 51°24.028 2°45.302 11.4 4.7 16 27.3
2009-12-09 08:40:46 51°24.076 2°45.369 73.3 3.4 61 27.6
2009-12-09 08:41:46 51°24.092 2°45.461 99.9 4.2 86 27
2009-12-09 08:42:46 51°24.086 2°45.571 109.9 3.9 92 27.9
2009-12-09 08:43:46 51°24.092 2°45.672 97.4 3.8 81 27.8
2009-12-09 08:44:46 51°24.101 2°45.768 99.5 3.6 82 27.8
2009-12-09 08:45:46 51°24.11 2°45.863 98.5 3.6 82 27.7
2009-12-09 08:46:46 51°24.12 2°45.956 98.9 3.6 80 28.9
2009-12-09 08:47:46 51°24.137 2°46.054 84.7 3.9 69 31
2009-12-09 08:48:46 51°24.166 2°46.15 68.5 4.1 59 29.2
2009-12-09 08:49:46 51°24.211 2°46.236 50.9 4.3 44 27.6
2009-12-09 08:50:46 51°24.264 2°46.314 47.5 4.3 42 30.8
2009-12-09 08:51:46 51°24.32 2°46.388 42.6 4.4 36 27.6
2009-12-09 08:52:46 51°24.377 2°46.458 45.1 4.2 40 28.4
2009-12-09 08:53:46 51°24.428 2°46.526 45.1 4 40 28.9
2009-12-09 08:54:46 51°24.48 2°46.592 42.9 4 37 30
2009-12-09 08:55:46 51°24.533 2°46.654 42.1 4 35 28.4
2009-12-09 08:56:46 51°24.585 2°46.716 41.8 3.9 37 30.2
2009-12-09 08:57:46 51°24.638 2°46.777 42.2 3.9 36 29.3
2009-12-09 08:58:46 51°24.69 2°46.837 40.9 3.9 36 30.1
2009-12-09 08:59:46 51°24.739 2°46.902 49.7 3.8 43 29.1
2009-12-09 09:00:46 51°24.785 2°46.97 50.9 3.8 41 28.7
2009-12-09 09:01:46 51°24.831 2°47.039 51.6 3.8 45 30.5
2009-12-09 09:02:46 51°24.877 2°47.108 53.1 3.7 45 30.1
2009-12-09 09:03:46 51°24.919 2°47.181 57 3.7 47 29.6
2009-12-09 09:04:46 51°24.96 2°47.255 59.7 3.7 49 28.9
2009-12-09 09:05:46 51°24.999 2°47.332 61.7 3.6 53 29.3
2009-12-09 09:06:46 51°25.038 2°47.407 59.9 3.7 49 28.3
2009-12-09 09:07:46 51°25.077 2°47.483 62.5 3.6 52 28.2
2009-12-09 09:08:46 51°25.115 2°47.558 60.6 3.6 50 28
2009-12-09 09:09:46 51°25.155 2°47.632 59.6 3.7 49 26.5
2009-12-09 09:10:46 51°25.195 2°47.706 62.5 3.6 52 27.7
2009-12-09 09:11:46 51°25.226 2°47.785 75.1 3.5 62 28.3
2009-12-09 09:12:46 51°25.253 2°47.872 76.8 3.8 64 27.3
2009-12-09 09:13:46 51°25.28 2°47.965 76.3 3.9 63 28.2
2009-12-09 09:14:46 51°25.308 2°48.059 76.3 3.9 64 28.3
2009-12-09 09:15:46 51°25.336 2°48.153 75.5 3.9 65 29
2009-12-09 09:16:46 51°25.364 2°48.248 73.7 4 61 28.9
2009-12-09 09:17:46 51°25.395 2°48.343 74.7 3.9 66 29.3
2009-12-09 09:18:46 51°25.415 2°48.438 88.3 3.7 76 29.5
2009-12-09 09:19:46 51°25.427 2°48.531 94 3.5 82 29
2009-12-09 09:20:46 51°25.43 2°48.62 106.9 3.2 93 27.6
2009-12-09 09:21:46 51°25.424 2°48.701 117.9 3.1 101 27.6
2009-12-09 09:22:46 51°25.41 2°48.777 123.8 2.9 108 25.9
2009-12-09 09:23:46 51°25.395 2°48.85 130.5 2.8 118 24.7
2009-12-09 09:24:46 51°25.379 2°48.901 141.1 1.5 107 24.3
2009-12-09 09:25:46 51°25.379 2°48.933 135.7 1.2 75 24.4
2009-12-09 09:26:46 51°25.388 2°48.956 131.1 1.2 43 24.3
2009-12-09 09:27:46 51°25.402 2°48.975 123.5 1.1 34 24
2009-12-09 09:28:46 51°25.393 2°49.011 155.3 2.8 151 24.2
2009-12-09 09:29:46 51°25.341 2°48.959 223.3 5.9 228 24.4
2009-12-09 09:30:46 51°25.231 2°48.835 205.2 9.1 208 25.2
2009-12-09 09:31:46 51°25.093 2°48.725 203.4 9.4 206 26
2009-12-09 09:32:46 51°24.968 2°48.602 215.3 7.1 222 24.9
2009-12-09 09:33:46 51°24.929 2°48.493 251.5 3.7 264 25
2009-12-09 09:34:46 51°24.938 2°48.433 280.2 1.4 322 26
2009-12-09 09:35:46 51°24.958 2°48.414 290.6 1.3 332 26.8
2009-12-09 09:36:46 51°24.977 2°48.402 281.5 1.1 344 26.6
2009-12-09 09:37:46 51°24.994 2°48.396 273.9 1 348 27.1
2009-12-09 09:38:46 51°25.011 2°48.392 270.7 1.1 354 27.3
2009-12-09 09:39:46 51°25.03 2°48.39 274.4 1.2 356 28
2009-12-09 09:40:46 51°25.05 2°48.392 281.7 1.1 4 28.6
2009-12-09 09:41:46 51°25.068 2°48.393 285.9 1.1 -999 28.5
2009-12-09 09:42:46 51°25.086 2°48.396 291 1 5 28.5
2009-12-09 09:43:46 51°25.104 2°48.399 292.3 1 7 29
2009-12-09 09:44:46 51°25.122 2°48.401 292.9 1.1 359 29
2009-12-09 09:45:46 51°25.141 2°48.402 291.6 1.2 -999 29.3
2009-12-09 09:46:46 51°25.16 2°48.404 293.2 1.2 357 29.4
2009-12-09 09:47:46 51°25.206 2°48.354 329.4 5.5 331 29.7
2009-12-09 09:48:46 51°25.325 2°48.261 332.5 10.1 334 28.9
2009-12-09 09:49:46 51°25.494 2°48.128 332.7 11.6 334 25.5
2009-12-09 09:50:46 51°25.668 2°47.987 332.5 11.8 333 23.4
2009-12-09 09:51:46 51°25.85 2°47.868 339 11.8 339 23.2
2009-12-09 09:52:46 51°26.037 2°47.769 341.2 11.8 345 20.3
2009-12-09 09:53:46 51°26.223 2°47.669 340.2 11.8 339 22.3
2009-12-09 09:54:46 51°26.409 2°47.568 341.2 11.8 342 23
2009-12-09 09:55:46 51°26.596 2°47.472 343.5 11.8 343 25.1
2009-12-09 09:56:46 51°26.785 2°47.392 345.2 11.8 347 27.1
2009-12-09 09:57:46 51°26.975 2°47.313 346.4 11.8 347 26
2009-12-09 09:58:46 51°27.163 2°47.232 344.8 11.7 345 26.1
2009-12-09 09:59:46 51°27.35 2°47.148 344.2 11.8 345 28.6
2009-12-09 10:00:46 51°27.538 2°47.066 344.2 11.7 343 31.1
2009-12-09 10:01:46 51°27.727 2°46.986 344.8 11.8 344 30.6
2009-12-09 10:02:46 51°27.915 2°46.903 344.4 11.7 347 30.9
2009-12-09 10:03:46 51°28.103 2°46.821 344.1 11.7 343 30.2
2009-12-09 10:04:46 51°28.291 2°46.739 343.6 11.7 346 27.7
2009-12-09 10:05:46 51°28.479 2°46.656 344.8 11.6 347 27.4
2009-12-09 10:06:46 51°28.667 2°46.575 344.7 11.8 345 26
2009-12-09 10:07:46 51°28.855 2°46.492 344.1 11.7 345 26.5
2009-12-09 10:08:46 51°29.043 2°46.407 344.8 11.8 344 22.9
2009-12-09 10:09:46 51°29.23 2°46.323 345.1 11.8 342 23.1
2009-12-09 10:10:46 51°29.418 2°46.239 344.5 11.7 346 25.2
2009-12-09 10:11:46 51°29.605 2°46.154 344.1 11.8 343 23.6
2009-12-09 10:12:46 51°29.793 2°46.072 344.1 11.7 346 24.2
2009-12-09 10:13:46 51°29.98 2°45.986 343.5 11.7 345 26.5
2009-12-09 10:14:46 51°30.168 2°45.903 345.2 11.8 346 26.1
2009-12-09 10:15:46 51°30.355 2°45.818 342.6 11.7 346 28.1
2009-12-09 10:16:46 51°30.543 2°45.731 344.5 11.7 345 30.9
2009-12-09 10:17:46 51°30.731 2°45.648 344.2 11.6 342 34.6
2009-12-09 10:18:46 51°30.918 2°45.565 344.5 11.6 345 32.2
2009-12-09 10:19:46 51°31.106 2°45.482 344.3 11.6 346 32.8
2009-12-09 10:20:46 51°31.293 2°45.398 344.2 11.7 343 30.3
2009-12-09 10:21:46 51°31.482 2°45.312 344.1 11.7 345 32.4
2009-12-09 10:22:46 51°31.669 2°45.224 343 11.7 341 32.6
2009-12-09 10:23:46 51°31.856 2°45.141 344.8 11.7 347 33.2
2009-12-09 10:24:46 51°32.043 2°45.055 345 11.7 345 35.8
2009-12-09 10:25:46 51°32.229 2°44.967 344.8 11.8 349 36.2
2009-12-09 10:26:46 51°32.415 2°44.879 344 11.7 343 35.1
2009-12-09 10:27:46 51°32.603 2°44.795 344.5 11.6 345 30.7
2009-12-09 10:28:46 51°32.79 2°44.709 345 11.8 345 29.2
2009-12-09 10:29:46 51°32.975 2°44.62 343.4 11.6 342 26
2009-12-09 10:30:46 51°33.165 2°44.544 348.3 11.9 346 21.1
2009-12-09 10:31:46 51°33.353 2°44.471 348.6 11.9 346 15.6
2009-12-09 10:32:46 51°33.545 2°44.402 349.4 12 347 17.4
2009-12-09 10:33:46 51°33.735 2°44.329 345.6 11.7 347 20.4
2009-12-09 10:34:46 51°33.926 2°44.262 349.9 11.7 352 22.4
2009-12-09 10:35:46 51°34.116 2°44.192 346.7 11.7 344 24.6
2009-12-09 10:36:46 51°34.307 2°44.124 348.7 11.7 348 25.9
2009-12-09 10:37:46 51°34.496 2°44.057 348.5 11.6 350 30.6
2009-12-09 10:38:46 51°34.687 2°43.989 347.8 11.9 347 33.2
2009-12-09 10:39:46 51°34.878 2°43.924 348.3 11.8 345 34.4
2009-12-09 10:40:46 51°35.07 2°43.857 348.9 11.9 349 36.6
2009-12-09 10:41:46 51°35.261 2°43.788 347.4 11.9 344 37
2009-12-09 10:42:46 51°35.45 2°43.721 348.5 11.8 352 38.2
2009-12-09 10:43:46 51°35.64 2°43.652 347.7 11.7 347 37.1
2009-12-09 10:44:46 51°35.829 2°43.583 347.4 11.6 350 39.7
2009-12-09 10:45:46 51°36.018 2°43.52 348.1 11.5 349 39.3
2009-12-09 10:46:46 51°36.205 2°43.449 348 11.6 346 41.3
2009-12-09 10:47:46 51°36.395 2°43.385 349 11.7 349 40
2009-12-09 10:48:46 51°36.584 2°43.32 349.2 11.7 349 38.2
2009-12-09 10:49:46 51°36.774 2°43.253 347.9 12 344 34.6
2009-12-09 10:50:46 51°36.965 2°43.201 357.9 11.7 358 38.8
2009-12-09 10:51:45 51°37.155 2°43.202 4.2 11.8 5 34.9
2009-12-09 10:52:46 51°37.352 2°43.213 3.5 11.7 6 37
2009-12-09 10:53:45 51°37.542 2°43.219 2.3 11.4 3 36.2
2009-12-09 10:54:46 51°37.737 2°43.229 2.1 11.4 5 34.5
2009-12-09 10:55:46 51°37.928 2°43.234 1.6 11.6 358 35
2009-12-09 10:56:46 51°38.119 2°43.241 2.5 11.4 4 34.9
2009-12-09 10:57:46 51°38.312 2°43.25 3.7 11.6 2 36.5
2009-12-09 10:58:45 51°38.502 2°43.258 2.7 11.5 1 35.3
2009-12-09 10:59:46 51°38.695 2°43.264 3.1 11.5 -999 36.2
2009-12-09 11:00:45 51°38.885 2°43.269 2.7 11.6 2 35.5
2009-12-09 11:01:46 51°39.08 2°43.27 2.1 11.5 -999 35
2009-12-09 11:02:45 51°39.268 2°43.257 357.6 11.5 352 33.8
2009-12-09 11:03:46 51°39.46 2°43.234 356.2 11.4 358 34.4
2009-12-09 11:04:46 51°39.649 2°43.214 358.2 11.5 356 33.2
2009-12-09 11:05:46 51°39.839 2°43.195 358.9 11.5 357 32
2009-12-09 11:06:46 51°40.03 2°43.172 357.3 11.3 357 32.1
2009-12-09 11:07:45 51°40.217 2°43.154 358.6 11.5 358 34.2
2009-12-09 11:08:46 51°40.409 2°43.125 354.1 11.4 352 32.3
2009-12-09 11:09:45 51°40.593 2°43.079 352.5 11.5 351 34.7
2009-12-09 11:10:46 51°40.784 2°43.033 353.5 11.2 352 33.3
2009-12-09 11:11:45 51°40.969 2°42.994 355.3 11.5 358 28.4
2009-12-09 11:12:46 51°41.157 2°42.948 353.1 11.4 348 32.5
2009-12-09 11:13:46 51°41.343 2°42.905 353.6 11.2 358 29.6
2009-12-09 11:14:46 51°41.529 2°42.857 353.2 11.5 349 33.7
2009-12-09 11:15:46 51°41.714 2°42.812 353.7 11.4 352 32.4
2009-12-09 11:16:45 51°41.898 2°42.767 353.3 11.3 356 34.8
2009-12-09 11:17:46 51°42.086 2°42.719 352.2 11.3 354 34.7
2009-12-09 11:18:45 51°42.27 2°42.676 355 11.4 354 35.2
2009-12-09 11:19:46 51°42.459 2°42.632 353.7 11.3 352 33.5
2009-12-09 11:20:45 51°42.643 2°42.595 354.1 11.3 353 38.1
2009-12-09 11:21:46 51°42.832 2°42.557 354.1 11.2 355 35.5
2009-12-09 11:22:46 51°43.019 2°42.519 354.7 11.3 350 39.5
2009-12-09 11:23:46 51°43.204 2°42.482 355.8 11.3 354 36.4
2009-12-09 11:24:46 51°43.389 2°42.437 352.5 11.3 347 39.9
2009-12-09 11:25:45 51°43.57 2°42.396 352.4 11.1 350 38.4
2009-12-09 11:26:46 51°43.757 2°42.353 353.5 11.3 347 34.1
2009-12-09 11:27:45 51°43.938 2°42.315 355.7 11.3 349 31.7
2009-12-09 11:28:46 51°44.125 2°42.275 355.4 11.4 347 39.8
2009-12-09 11:29:45 51°44.306 2°42.24 355 11.2 353 39.6
2009-12-09 11:30:46 51°44.493 2°42.198 353.4 11.1 353 34
2009-12-09 11:31:46 51°44.676 2°42.156 352.3 11 352 38.8
2009-12-09 11:32:46 51°44.86 2°42.116 354.1 11.1 349 38
2009-12-09 11:33:46 51°44.981 2°42.073 335.1 4.9 329 37.5
2009-12-09 11:34:45 51°45.018 2°42.015 302.3 2 307 38.5
2009-12-09 11:35:46 51°45.03 2°42.001 285.3 0.5 1 38.8
2009-12-09 11:36:45 51°45.038 2°42.001 302.5 0.4 16 38.3
2009-12-09 11:37:46 51°45.045 2°42.006 317.3 0.3 36 36.6
2009-12-09 11:38:45 51°45.051 2°42.01 322.7 0.4 14 35.9
2009-12-09 11:39:46 51°45.057 2°42.013 321.1 0.4 6 35.3
2009-12-09 11:40:45 51°45.064 2°42.014 313.1 0.4 4 34.5
2009-12-09 11:41:46 51°45.072 2°42.013 306.7 0.4 350 33.5
2009-12-09 11:42:46 51°45.08 2°42.012 301.1 0.4 3 34.7
2009-12-09 11:43:46 51°45.092 2°42.002 310.9 2.1 319 33.8
2009-12-09 11:44:46 51°45.145 2°41.993 27.4 3 23 37.1
2009-12-09 11:45:46 51°45.169 2°42.039 75.6 1.9 68 33
2009-12-09 11:46:46 51°45.17 2°42.117 94.3 3.2 92 34.5
2009-12-09 11:47:45 51°45.163 2°42.211 102.6 4.6 106 37.6
2009-12-09 11:48:46 51°45.124 2°42.318 130 4 130 36.8
2009-12-09 11:49:45 51°45.081 2°42.384 139.5 3.5 138 36.1
2009-12-09 11:50:45 51°45.033 2°42.438 147.1 3.5 148 40.4
2009-12-09 11:51:45 51°44.982 2°42.493 144.8 3.8 145 38.8
2009-12-09 11:52:45 51°44.932 2°42.557 139.9 3.8 139 37.8
2009-12-09 11:53:46 51°44.887 2°42.627 135 3.7 135 36.1
2009-12-09 11:54:45 51°44.845 2°42.695 137.3 3.6 138 37.8
2009-12-09 11:55:46 51°44.798 2°42.756 139.5 3.6 141 37.3
2009-12-09 11:56:45 51°44.749 2°42.804 154.7 3.5 156 36.2
2009-12-09 11:57:46 51°44.691 2°42.828 168.5 3.6 172 33.4
2009-12-09 11:58:45 51°44.631 2°42.832 177.5 3.7 177 35.9
2009-12-09 11:59:46 51°44.568 2°42.829 181 3.7 185 33.6
2009-12-09 12:00:46 51°44.506 2°42.816 185.6 3.8 189 35.1
2009-12-09 12:01:46 51°44.443 2°42.803 180 3.7 183 36.7
2009-12-09 12:02:46 51°44.382 2°42.804 175.2 3.7 179 35.3
2009-12-09 12:03:45 51°44.322 2°42.8 181.5 3.6 184 34.7
2009-12-09 12:04:46 51°44.261 2°42.782 190.7 3.8 195 35.3
2009-12-09 12:05:45 51°44.204 2°42.75 202.8 3.6 206 34.3
2009-12-09 12:06:46 51°44.152 2°42.695 216.2 3.8 221 40.9
2009-12-09 12:07:45 51°44.112 2°42.622 228.3 3.7 232 40.7
2009-12-09 12:08:46 51°44.071 2°42.541 226 3.8 229 38.6
2009-12-09 12:09:45 51°44.031 2°42.462 227.5 3.8 231 39.7
2009-12-09 12:10:46 51°43.989 2°42.38 227.3 4 231 36.2
2009-12-09 12:11:46 51°43.946 2°42.297 225.5 4.1 227 31.7
2009-12-09 12:12:46 51°43.904 2°42.213 227.1 4.1 228 35.8
2009-12-09 12:13:46 51°43.86 2°42.131 226.5 4.1 230 36.6
2009-12-09 12:14:46 51°43.817 2°42.047 226.5 4.1 231 39.5
2009-12-09 12:15:46 51°43.773 2°41.967 225 4 228 39.4
2009-12-09 12:16:45 51°43.729 2°41.887 225.8 4 228 36.7
2009-12-09 12:17:45 51°43.682 2°41.813 213.9 3.9 215 39.9
2009-12-09 12:18:45 51°43.623 2°41.773 189.2 4 194 36.8
2009-12-09 12:19:46 51°43.557 2°41.762 171.8 3.9 177 36.7
2009-12-09 12:20:46 51°43.493 2°41.785 156.2 4 162 38.3
2009-12-09 12:21:46 51°43.436 2°41.828 142.5 3.8 147 38.4
2009-12-09 12:22:46 51°43.387 2°41.889 129.4 3.6 137 33.9
2009-12-09 12:23:46 51°43.347 2°41.963 114.7 3.6 123 35.9
2009-12-09 12:24:46 51°43.324 2°42.051 102.4 3.6 111 35.3
2009-12-09 12:25:46 51°43.303 2°42.138 104 3.4 115 34.2
2009-12-09 12:26:46 51°43.282 2°42.225 99.7 3.4 110 34
2009-12-09 12:27:46 51°43.262 2°42.312 103.8 3.5 115 32.6
2009-12-09 12:28:45 51°43.227 2°42.385 125.2 3.6 134 35
2009-12-09 12:29:46 51°43.183 2°42.451 129.4 3.5 138 38.2
2009-12-09 12:30:46 51°43.139 2°42.512 131.1 3.5 138 39.3
2009-12-09 12:31:46 51°43.092 2°42.57 137.7 3.6 146 38.5
2009-12-09 12:32:46 51°43.042 2°42.623 140.1 3.5 148 40.2
2009-12-09 12:33:46 51°42.991 2°42.667 147 3.3 153 39.6
2009-12-09 12:34:46 51°42.953 2°42.69 154.1 2.1 162 39.2
2009-12-09 12:35:46 51°42.91 2°42.71 158.5 3.7 163 39.1
2009-12-09 12:36:46 51°42.82 2°42.76 151.9 5 159 36.5
2009-12-09 12:37:45 51°42.766 2°42.787 156.9 2.6 168 35.2
2009-12-09 12:38:46 51°42.736 2°42.798 150.1 1.4 166 34.6
2009-12-09 12:39:45 51°42.712 2°42.809 153.5 2.6 166 35.3
2009-12-09 12:40:46 51°42.647 2°42.761 224.9 6.2 224 28.5
2009-12-09 12:41:46 51°42.535 2°42.592 221.5 10.8 224 37.4
2009-12-09 12:42:46 51°42.393 2°42.377 221.7 12.1 223 37.5
2009-12-09 12:43:46 51°42.245 2°42.156 221.5 12.2 223 36.9
2009-12-09 12:44:46 51°42.096 2°41.936 220.3 12.1 222 38.1
2009-12-09 12:45:46 51°41.947 2°41.715 220.4 12.2 223 33.1
2009-12-09 12:46:46 51°41.798 2°41.492 221.4 12.2 223 34.6
2009-12-09 12:47:46 51°41.648 2°41.271 220 12.3 221 34.5
2009-12-09 12:48:45 51°41.5 2°41.053 221.3 12.3 222 30.9
2009-12-09 12:49:46 51°41.348 2°40.824 221.5 12.3 224 36.7
2009-12-09 12:50:45 51°41.201 2°40.606 221.1 12.3 222 38.7
2009-12-09 12:51:46 51°41.049 2°40.378 222 12.2 223 38.2
2009-12-09 12:52:45 51°40.9 2°40.159 221.2 12.3 223 39.8
2009-12-09 12:53:46 51°40.746 2°39.934 221.2 12.3 222 36.3
2009-12-09 12:54:46 51°40.596 2°39.709 222.2 12.3 223 38.5
2009-12-09 12:55:46 51°40.444 2°39.485 221.5 12.4 222 36.8
2009-12-09 12:56:46 51°40.291 2°39.263 220.9 12.4 222 39.8
2009-12-09 12:57:46 51°40.14 2°39.037 221.7 12.3 223 42.1
2009-12-09 12:58:46 51°39.988 2°38.813 221 12.4 222 41.6
2009-12-09 12:59:45 51°39.839 2°38.592 221.5 12.5 222 39.4
2009-12-09 13:00:46 51°39.684 2°38.364 221.8 12.5 223 44.2
2009-12-09 13:01:45 51°39.535 2°38.142 221.3 12.4 223 40.9
2009-12-09 13:02:46 51°39.38 2°37.914 221.5 12.3 223 39.8
2009-12-09 13:03:45 51°39.23 2°37.693 221.7 12.3 223 40.3
2009-12-09 13:04:46 51°39.075 2°37.468 220.1 12.3 221 39.8
2009-12-09 13:05:46 51°38.922 2°37.243 221.8 12.5 223 39.6
2009-12-09 13:06:46 51°38.77 2°37.017 221.7 12.5 223 39.2
2009-12-09 13:07:46 51°38.617 2°36.793 221 12.5 222 40.1
2009-12-09 13:08:45 51°38.466 2°36.57 221.5 12.5 223 39.5
2009-12-09 13:09:46 51°38.31 2°36.341 221.6 12.5 222 38.8
2009-12-09 13:10:45 51°38.158 2°36.12 220.1 12.5 221 38.2
2009-12-09 13:11:46 51°38.002 2°35.892 221 12.5 222 36.7
2009-12-09 13:12:45 51°37.851 2°35.669 221.3 12.5 223 36.4
2009-12-09 13:13:46 51°37.695 2°35.438 221.5 12.6 224 34.5
2009-12-09 13:14:45 51°37.544 2°35.215 221.5 12.4 222 31
2009-12-09 13:15:46 51°37.388 2°34.981 221.8 12.7 224 29
2009-12-09 13:16:46 51°37.236 2°34.751 221.5 12.5 224 26.1
2009-12-09 13:17:46 51°37.084 2°34.519 221.4 12.5 224 24.2
2009-12-09 13:18:46 51°36.933 2°34.285 221.3 12.7 225 12.8
2009-12-09 13:19:46 51°36.784 2°34.043 221.7 12.7 224 24.2
2009-12-09 13:20:45 51°36.635 2°33.811 223.3 12.6 227 25.8
2009-12-09 13:21:45 51°36.491 2°33.567 225.8 12.6 227 31.4
2009-12-09 13:22:46 51°36.348 2°33.319 226 12.5 226 34.1
2009-12-09 13:23:45 51°36.209 2°33.08 225.4 12.5 226 35.4
2009-12-09 13:24:46 51°36.063 2°32.833 225.4 12.5 226 35.7
2009-12-09 13:25:45 51°35.921 2°32.595 224.9 12.5 226 37.6
2009-12-09 13:26:46 51°35.775 2°32.35 225.4 12.6 226 38.4
2009-12-09 13:27:46 51°35.63 2°32.107 225.4 12.6 226 39.8
2009-12-09 13:28:46 51°35.485 2°31.864 225.2 12.6 226 39.2
2009-12-09 13:29:46 51°35.338 2°31.621 226 12.6 226 40.8
2009-12-09 13:30:45 51°35.195 2°31.382 224.8 12.7 224 38.6
2009-12-09 13:31:45 51°35.048 2°31.14 224.3 12.6 225 39
2009-12-09 13:32:45 51°34.892 2°30.911 220.6 12.7 221 39.4
2009-12-09 13:33:46 51°34.732 2°30.678 220.7 12.8 222 39.8
2009-12-09 13:34:45 51°34.576 2°30.454 220.1 12.8 222 39.6
2009-12-09 13:35:46 51°34.414 2°30.222 220.1 12.8 222 38.6
2009-12-09 13:36:46 51°34.257 2°29.993 221 12.7 223 39.8
2009-12-09 13:37:46 51°34.099 2°29.767 219.7 12.8 221 37.9
2009-12-09 13:38:46 51°33.94 2°29.543 219.9 12.7 222 37.9
2009-12-09 13:39:46 51°33.784 2°29.312 220.7 12.7 222 38.2
2009-12-09 13:40:46 51°33.629 2°29.083 220.7 12.7 223 36.4
2009-12-09 13:41:45 51°33.477 2°28.855 220.7 12.7 224 36.9
2009-12-09 13:42:45 51°33.321 2°28.626 220.4 12.7 223 35.2
2009-12-09 13:43:46 51°33.159 2°28.4 216.7 12.7 218 36.6
2009-12-09 13:44:46 51°32.994 2°28.189 214.3 12.7 217 37.1
2009-12-09 13:45:46 51°32.826 2°27.98 214.9 12.8 217 37.7
2009-12-09 13:46:46 51°32.66 2°27.77 216.3 12.7 218 36.6
2009-12-09 13:47:46 51°32.495 2°27.56 215.5 12.7 219 37
2009-12-09 13:48:46 51°32.332 2°27.346 217.1 12.6 218 38.1
2009-12-09 13:49:46 51°32.169 2°27.134 216 12.6 218 40
2009-12-09 13:50:45 51°32.009 2°26.927 215.8 12.6 219 37.5
2009-12-09 13:51:45 51°31.846 2°26.715 216.3 12.7 219 40
2009-12-09 13:52:45 51°31.681 2°26.504 215.8 12.7 218 39.6
2009-12-09 13:53:45 51°31.515 2°26.297 215.8 12.6 219 39.4
2009-12-09 13:54:46 51°31.349 2°26.08 216.9 12.8 219 39.8
2009-12-09 13:55:46 51°31.185 2°25.863 216.5 12.7 218 39.2
2009-12-09 13:56:46 51°31.021 2°25.648 216.4 12.7 218 39.7
2009-12-09 13:57:46 51°30.855 2°25.438 215.1 12.7 219 39.7
2009-12-09 13:58:46 51°30.691 2°25.223 216.5 12.7 219 39.9
2009-12-09 13:59:46 51°30.526 2°25.01 216.7 12.8 219 39
2009-12-09 14:00:46 51°30.361 2°24.797 216.3 12.8 217 39.5
2009-12-09 14:01:45 51°30.197 2°24.592 215.4 12.6 218 40.4
2009-12-09 14:02:45 51°30.032 2°24.381 216.4 12.7 217 33.1
2009-12-09 14:03:45 51°29.866 2°24.172 216.4 12.7 220 39.2
2009-12-09 14:04:45 51°29.701 2°23.96 217.4 12.7 219 41.2
2009-12-09 14:05:46 51°29.534 2°23.745 216.7 12.6 220 40.2
2009-12-09 14:06:45 51°29.372 2°23.539 217 12.6 217 39
2009-12-09 14:07:46 51°29.204 2°23.327 216.6 12.7 218 38.1
2009-12-09 14:08:45 51°29.043 2°23.122 215.6 12.6 219 32.7
2009-12-09 14:09:46 51°28.877 2°22.909 216.4 12.6 219 32.4
2009-12-09 14:10:46 51°28.714 2°22.701 217.1 12.6 218 34.9
2009-12-09 14:11:45 51°28.553 2°22.497 216.5 12.4 219 29.8
2009-12-09 14:12:46 51°28.386 2°22.291 216 12.4 217 31.2
2009-12-09 14:13:45 51°28.224 2°22.094 215.8 12.4 220 30.5
2009-12-09 14:14:46 51°28.057 2°21.89 216.5 12.4 218 23.5
2009-12-09 14:15:45 51°27.896 2°21.689 215.8 12.5 219 25.7
2009-12-09 14:16:46 51°27.729 2°21.482 216.9 12.4 217 24.9
2009-12-09 14:17:45 51°27.565 2°21.285 215.5 12.5 218 24.4
2009-12-09 14:18:46 51°27.425 2°21.108 225.9 7.4 228 24.3
2009-12-09 14:19:45 51°27.403 2°21 290.5 2.1 265 24
2009-12-09 14:20:46 51°27.392 2°20.98 326.7 0.9 204 23.8
2009-12-09 14:21:46 51°27.381 2°20.972 339.3 0.6 211 23.4
2009-12-09 14:22:45 51°27.374 2°20.964 335.2 0.5 224 23.1
2009-12-09 14:23:46 51°27.366 2°20.956 332.7 0.6 212 22.7
2009-12-09 14:24:45 51°27.357 2°20.947 326.2 0.7 210 21.3
2009-12-09 14:25:46 51°27.347 2°20.938 315.8 0.7 203 22.6
2009-12-09 14:26:45 51°27.336 2°20.932 311.9 0.7 216 20.2
2009-12-09 14:27:46 51°27.334 2°20.913 324.5 1.7 307 21.8
2009-12-09 14:28:45 51°27.366 2°20.916 39.7 2.7 53 21.7
2009-12-09 14:29:50 51°27.386 2°21.031 74.7 5.3 85 23.9
2009-12-09 14:30:49 51°27.374 2°21.146 94.9 3.5 110 24.4
2009-12-09 14:31:49 51°27.356 2°21.221 93.4 2.8 110 24.1
2009-12-09 14:32:49 51°27.341 2°21.288 95.9 2.6 112 23.7
2009-12-09 14:33:50 51°27.318 2°21.35 105.6 2.9 126 22
2009-12-09 14:34:49 51°27.288 2°21.425 109 3.6 122 26.7
2009-12-09 14:35:49 51°27.254 2°21.507 109.6 3.8 124 26.7
2009-12-09 14:36:49 51°27.22 2°21.591 110.2 3.8 123 25.8
2009-12-09 14:37:49 51°27.186 2°21.675 108.2 3.8 121 33.8
2009-12-09 14:38:49 51°27.154 2°21.76 109.5 3.7 122 32.9
2009-12-09 14:39:49 51°27.12 2°21.843 110.6 3.8 122 35.6
2009-12-09 14:40:49 51°27.087 2°21.926 108.9 3.6 121 36.2
2009-12-09 14:41:49 51°27.054 2°22.009 109.9 3.7 122 33.1
2009-12-09 14:42:50 51°27.022 2°22.095 108.7 3.6 118 33.5
2009-12-09 14:43:49 51°26.991 2°22.178 109 3.6 118 34.6
2009-12-09 14:44:49 51°26.961 2°22.262 108.5 3.7 118 31.6
2009-12-09 14:45:49 51°26.931 2°22.347 111.3 3.7 122 27.5
2009-12-09 14:46:49 51°26.888 2°22.421 130.7 3.9 141 29.2
2009-12-09 14:47:49 51°26.833 2°22.477 143.1 3.9 151 28.4
2009-12-09 14:48:49 51°26.773 2°22.523 151.5 4 159 22.8
2009-12-09 14:49:49 51°26.708 2°22.55 166.3 4.1 172 26.5
2009-12-09 14:50:49 51°26.64 2°22.547 185.2 4.2 189 24.2
2009-12-09 14:51:49 51°26.572 2°22.516 200.7 4.2 203 24.8
2009-12-09 14:52:49 51°26.514 2°22.454 222.3 4.2 222 25
2009-12-09 14:53:49 51°26.472 2°22.364 241.8 4.2 241 23
2009-12-09 14:54:49 51°26.44 2°22.265 242.8 4.2 242 24.9
2009-12-09 14:55:49 51°26.409 2°22.166 246 4.1 245 28
2009-12-09 14:56:50 51°26.379 2°22.065 241.3 4.1 242 27.9
2009-12-09 14:57:49 51°26.342 2°21.976 232.3 4.1 233 28.5
2009-12-09 14:58:49 51°26.298 2°21.894 224.8 4 226 31.1
2009-12-09 14:59:49 51°26.248 2°21.824 219.2 3.8 222 27.6
2009-12-09 15:00:49 51°26.203 2°21.755 224.8 3.7 226 31.5
2009-12-09 15:01:49 51°26.161 2°21.685 223.8 3.6 225 30.7
2009-12-09 15:02:49 51°26.118 2°21.616 222.9 3.6 225 34.2
2009-12-09 15:03:49 51°26.075 2°21.55 222.6 3.6 224 33
2009-12-09 15:04:49 51°26.031 2°21.483 223.3 3.6 225 32.3
2009-12-09 15:05:49 51°25.989 2°21.415 222.4 3.6 225 31.3
2009-12-09 15:06:49 51°25.947 2°21.349 222.9 3.5 225 36
2009-12-09 15:07:49 51°25.907 2°21.28 230.6 3.5 233 34.4
2009-12-09 15:08:49 51°25.896 2°21.195 278.4 3.4 276 29.9
2009-12-09 15:09:49 51°25.904 2°21.105 283.4 3.4 281 34.7
2009-12-09 15:10:49 51°25.929 2°21.025 315.3 3.3 312 36.2
2009-12-09 15:11:49 51°25.975 2°20.99 355.6 3 356 36.6
2009-12-09 15:12:49 51°26.018 2°21.015 38.7 2.5 42 36.5
2009-12-09 15:13:49 51°26.034 2°21.057 66.6 1.4 73 35
2009-12-09 15:14:49 51°26.039 2°21.084 71.9 0.9 74 33
2009-12-09 15:15:49 51°26.041 2°21.105 79.3 0.9 92 31.8
2009-12-09 15:16:49 51°26.03 2°21.17 105.5 5.2 109 34.8
2009-12-09 15:17:49 51°25.991 2°21.371 103.9 9.7 107 32
2009-12-09 15:18:49 51°25.942 2°21.648 105.3 11.3 109 26.4
2009-12-09 15:19:49 51°25.892 2°21.938 99.1 11.3 103 19.7
2009-12-09 15:20:49 51°25.88 2°22.242 90.1 11.5 89 19.8
2009-12-09 15:21:49 51°25.874 2°22.548 89.6 11.4 94 30.3
2009-12-09 15:22:49 51°25.871 2°22.85 88.3 11.3 89 36.9
2009-12-09 15:23:49 51°25.851 2°23.147 98 11.2 101 35.9
2009-12-09 15:24:49 51°25.802 2°23.437 105 11.3 108 36.2
2009-12-09 15:25:49 51°25.726 2°23.712 111.2 11.2 115 36.5
2009-12-09 15:26:49 51°25.633 2°23.976 116.8 11.4 121 35.6
2009-12-09 15:27:49 51°25.538 2°24.24 116.1 11.4 119 35.2
2009-12-09 15:28:49 51°25.45 2°24.506 115.9 11.3 121 32.3
2009-12-09 15:29:49 51°25.36 2°24.775 117 11.4 120 32.1
2009-12-09 15:30:49 51°25.274 2°25.048 115.7 11.5 117 34.3
2009-12-09 15:31:49 51°25.165 2°25.299 125.5 11.6 127 36.1
2009-12-09 15:32:49 51°25.049 2°25.542 126.4 11.5 128 36.2
2009-12-09 15:33:49 51°24.932 2°25.785 126.7 11.5 128 35.8
2009-12-09 15:34:49 51°24.814 2°26.027 126.3 11.6 128 36
2009-12-09 15:35:49 51°24.695 2°26.268 125.8 11.5 129 35.1
2009-12-09 15:36:49 51°24.578 2°26.513 125.7 11.6 129 34.6
2009-12-09 15:37:49 51°24.461 2°26.758 126.4 11.6 127 33.3
2009-12-09 15:38:49 51°24.347 2°27.007 125.9 11.6 125 29.3
2009-12-09 15:39:49 51°24.235 2°27.261 125.1 11.7 124 17.1
2009-12-09 15:40:49 51°24.12 2°27.521 125.9 12 124 15.9
2009-12-09 15:41:49 51°24.007 2°27.782 126.3 11.8 125 30.4
2009-12-09 15:42:49 51°23.895 2°28.035 124.4 11.6 124 34.6
2009-12-09 15:43:49 51°23.781 2°28.284 126.4 11.6 127 35.7
2009-12-09 15:44:49 51°23.667 2°28.533 126.3 11.6 126 36.3
2009-12-09 15:45:49 51°23.554 2°28.784 125.7 11.7 126 36.1
2009-12-09 15:46:49 51°23.441 2°29.036 124.9 11.7 125 36
2009-12-09 15:47:49 51°23.328 2°29.288 124.9 11.6 125 36
2009-12-09 15:48:49 51°23.215 2°29.539 125.6 11.7 125 35.4
2009-12-09 15:49:49 51°23.103 2°29.79 125.5 11.6 127 35
2009-12-09 15:50:49 51°22.991 2°30.044 125 11.7 123 34.9
2009-12-09 15:51:49 51°22.884 2°30.3 124.9 11.6 124 34.3
2009-12-09 15:52:49 51°22.774 2°30.553 125.5 11.5 125 33.1
2009-12-09 15:53:49 51°22.667 2°30.809 125.1 11.6 126 31.8
2009-12-09 15:54:49 51°22.559 2°31.066 124.5 11.7 124 32.8
2009-12-09 15:55:49 51°22.449 2°31.323 124.9 11.7 123 32.8
2009-12-09 15:56:49 51°22.338 2°31.578 125 11.7 124 32.8
2009-12-09 15:57:49 51°22.232 2°31.837 124.7 11.6 123 33.5
2009-12-09 15:58:49 51°22.122 2°32.095 124.8 11.8 124 31.7
2009-12-09 15:59:49 51°22.012 2°32.353 124.6 11.7 125 32.6
2009-12-09 16:00:49 51°21.902 2°32.61 125.3 11.8 125 29.8
2009-12-09 16:01:49 51°21.789 2°32.867 125.5 11.8 126 25.4
2009-12-09 16:02:49 51°21.675 2°33.123 125.4 11.8 126 24.8
2009-12-09 16:03:49 51°21.56 2°33.379 125.4 11.8 129 28.8
2009-12-09 16:04:49 51°21.446 2°33.635 125.6 11.8 125 32.8
2009-12-09 16:05:49 51°21.336 2°33.893 124.9 11.8 124 34.5
2009-12-09 16:06:49 51°21.226 2°34.154 125.3 11.8 123 32.3
2009-12-09 16:07:49 51°21.118 2°34.417 125.3 11.8 124 33.3
2009-12-09 16:08:49 51°21.007 2°34.679 125.9 11.9 123 33.2
2009-12-09 16:09:49 51°20.898 2°34.94 125.2 11.8 122 33.8
2009-12-09 16:10:49 51°20.789 2°35.197 125.3 11.7 124 30.6
2009-12-09 16:11:49 51°20.68 2°35.455 124.4 11.8 122 29
2009-12-09 16:12:49 51°20.572 2°35.716 124.7 11.8 124 24.7
2009-12-09 16:13:49 51°20.463 2°35.981 124.8 11.9 124 20.9
2009-12-09 16:14:49 51°20.355 2°36.249 124.9 12 121 22
2009-12-09 16:15:49 51°20.246 2°36.515 125.2 11.9 123 23.6
2009-12-09 16:16:49 51°20.14 2°36.785 122.2 11.9 122 24.5
2009-12-09 16:17:49 51°20.04 2°37.062 121 12 119 24.1
2009-12-09 16:18:49 51°19.944 2°37.343 120.9 12 120 22.4
2009-12-09 16:19:49 51°19.847 2°37.623 121.3 12.1 119 25
2009-12-09 16:20:49 51°19.749 2°37.901 121.1 12.1 118 24.4
2009-12-09 16:21:49 51°19.651 2°38.18 121.1 12 119 24.3
2009-12-09 16:22:49 51°19.553 2°38.457 121.4 12 119 26.4
2009-12-09 16:23:49 51°19.455 2°38.735 121.5 12 118 29.2
2009-12-09 16:24:49 51°19.361 2°39.012 121.1 11.9 119 31.1
2009-12-09 16:25:49 51°19.264 2°39.286 121.7 11.8 120 31.2
2009-12-09 16:26:49 51°19.167 2°39.561 120.7 11.9 118 28.9
2009-12-09 16:27:49 51°19.071 2°39.837 120.5 11.9 119 26.3
2009-12-09 16:28:49 51°18.971 2°40.11 124.6 11.9 121 24.7
2009-12-09 16:29:49 51°18.863 2°40.374 127.4 11.9 124 23.8
2009-12-09 16:30:49 51°18.756 2°40.644 125 12.2 123 20.4
2009-12-09 16:31:49 51°18.646 2°40.917 126.2 12.2 123 21
2009-12-09 16:32:49 51°18.539 2°41.19 124.1 12.1 121 22.6
2009-12-09 16:33:49 51°18.432 2°41.459 125.2 12 122 23.9
2009-12-09 16:34:49 51°18.329 2°41.731 124.2 12 121 25.6
2009-12-09 16:35:49 51°18.225 2°42.001 125.7 11.9 121 26.3
2009-12-09 16:36:49 51°18.102 2°42.241 136.2 11.7 133 26.7
2009-12-09 16:37:49 51°17.973 2°42.473 135.5 11.6 132 26.5
2009-12-09 16:38:49 51°17.841 2°42.702 137.1 11.7 133 25.7
2009-12-09 16:39:49 51°17.709 2°42.931 136.5 11.7 132 20.8
2009-12-09 16:40:49 51°17.578 2°43.167 135.8 12.1 131 14.2
2009-12-09 16:41:49 51°17.446 2°43.411 135 12.2 130 15.6
2009-12-09 16:42:49 51°17.321 2°43.664 130.7 12.1 128 18
2009-12-09 16:43:49 51°17.205 2°43.926 126.2 12.2 122 18.3
2009-12-09 16:44:49 51°17.098 2°44.197 126 12.1 122 18.5
2009-12-09 16:45:49 51°16.992 2°44.467 126.1 11.9 122 18.2
2009-12-09 16:46:49 51°16.892 2°44.742 124.9 12 119 16.3
2009-12-09 16:47:49 51°16.793 2°45.017 124.4 11.9 121 14.6
2009-12-09 16:48:49 51°16.69 2°45.288 125.2 11.8 123 14
2009-12-09 16:49:49 51°16.587 2°45.555 126.2 11.8 121 14.3
2009-12-09 16:50:49 51°16.48 2°45.82 126.6 11.9 123 13.4
2009-12-09 16:51:49 51°16.374 2°46.084 127.1 11.8 125 12.4
2009-12-09 16:52:49 51°16.264 2°46.345 128.1 11.9 123 12.9
2009-12-09 16:53:49 51°16.158 2°46.615 124.9 12 121 15.3
2009-12-09 16:54:49 51°16.055 2°46.889 125.3 12 122 18.1
2009-12-09 16:55:49 51°15.962 2°47.176 120 12.3 115 19.4
2009-12-09 16:56:49 51°15.873 2°47.471 121.8 12.4 116 18.9
2009-12-09 16:57:49 51°15.783 2°47.767 120.6 12.3 116 17.4
2009-12-09 16:58:49 51°15.691 2°48.059 122.1 12.3 117 15.2
2009-12-09 16:59:49 51°15.609 2°48.356 119.1 12.3 112 13.7
2009-12-09 17:00:49 51°15.529 2°48.654 116.9 12.2 113 13.3
2009-12-09 17:01:49 51°15.453 2°48.952 115.5 12.2 111 15.3
2009-12-09 17:02:49 51°15.384 2°49.258 114.5 12.4 107 15.9
2009-12-09 17:03:49 51°15.319 2°49.569 113.3 12.3 107 15.8
2009-12-09 17:04:49 51°15.255 2°49.88 113.2 12.3 108 16
2009-12-09 17:05:49 51°15.191 2°50.189 114.2 12.3 109 15.9
2009-12-09 17:06:49 51°15.126 2°50.497 114.2 12.2 109 15.7
2009-12-09 17:07:49 51°15.059 2°50.804 114.6 12.2 110 15.3
2009-12-09 17:08:49 51°14.989 2°51.107 115.8 12.2 111 14.9
2009-12-09 17:09:49 51°14.917 2°51.408 114.6 12.2 108 14.1
2009-12-09 17:10:49 51°14.854 2°51.713 111.8 12.1 107 13.5
2009-12-09 17:11:49 51°14.796 2°52.021 109.3 12.2 105 13.2
2009-12-09 17:12:49 51°14.746 2°52.32 108.2 9.4 102 12.8
2009-12-09 17:13:49 51°14.733 2°52.524 99.8 7.3 92 12.5
2009-12-09 17:14:49 51°14.728 2°52.722 99.4 7.5 92 12.4
2009-12-09 17:15:49 51°14.724 2°52.91 100.2 6.5 91 12.4
2009-12-09 17:16:49 51°14.72 2°53.067 108.9 5.5 98 12.5
2009-12-09 17:17:49 51°14.701 2°53.202 119.4 5.3 106 12.2
2009-12-09 17:18:49 51°14.676 2°53.345 119.6 5.8 108 12.1
2009-12-09 17:19:49 51°14.644 2°53.493 120.6 6.3 112 12.3
2009-12-09 17:20:49 51°14.595 2°53.688 117.9 9.3 111 12.5
2009-12-09 17:21:49 51°14.536 2°53.95 115.5 11.4 108 13.2
2009-12-09 17:22:49 51°14.478 2°54.254 112.5 12.2 107 13.2
2009-12-09 17:23:49 51°14.441 2°54.578 102.3 12.6 95 13
2009-12-09 17:24:49 51°14.405 2°54.903 110.7 12.1 107 12.8
2009-12-09 17:25:49 51°14.309 2°55.162 125.5 10.2 127 13.4
2009-12-09 17:26:49 51°14.206 2°55.343 137.1 7.6 140 4.8
2009-12-09 17:27:49 51°14.128 2°55.417 152.5 4.5 152 4.8
2009-12-09 17:28:49 51°14.067 2°55.462 155.5 3.8 156 -999
2009-12-09 17:29:49 51°14.008 2°55.505 157.2 4.3 159 14.2
2009-12-09 17:30:49 51°13.913 2°55.571 154.9 7.9 157 13.9
2009-12-09 17:31:49 51°13.792 2°55.664 149.7 7.2 149 15
2009-12-09 17:32:49 51°13.727 2°55.766 126.9 4.8 128 15.7
2009-12-09 17:33:53 51°13.686 2°55.869 117.9 3.8 118 -999
2009-12-09 17:34:53 51°13.665 2°55.945 107.9 1.9 107 -999